Home > Products > Valid Products > TAF

000
FTUS45 KABQ 260500
TAFROW
TAF
KROW 260526Z 2606/2706 24005KT P6SM SKC
     FM261600 36005KT P6SM SKC
     FM270200 12005KT P6SM SKC
     FM270400 24005KT P6SM SKC=



000
FTUS45 KABQ 260500
TAFABQ
TAF
KABQ 260526Z 2606/2706 36010KT P6SM SKC
     FM262100 33010G20KT P6SM SKC
     FM270000 36010KT P6SM SKC=



000
FTUS45 KABQ 260500
TAFTCC
TAF
KTCC 260526Z 2606/2706 27015KT P6SM SKC
     FM261100 33015G25KT P6SM SKC
     FM261500 06005KT P6SM SKC
     FM270200 21005KT P6SM SKC=



000
FTUS45 KABQ 260500
TAFLVS
TAF
KLVS 260526Z 2606/2706 36005KT P6SM SKC
     FM270000 09010KT P6SM SKC=



000
FTUS45 KABQ 260500
TAFSAF
TAF
KSAF 260526Z 2606/2706 33015KT P6SM SKC
     FM261200 36010KT P6SM SKC=



000
FTUS45 KABQ 260500
TAFGUP
TAF
KGUP 260526Z 2606/2706 27005KT P6SM SKC
     FM261000 09005KT P6SM SKC
     FM262100 27010KT P6SM SKC
     FM270300 06006KT P6SM SKC=



000
FTUS45 KABQ 260500
TAFFMN
TAF
KFMN 260526Z 2606/2706 30005KT P6SM FEW080
     FM262100 27010G20KT P6SM SKC
     FM262300 27010KT P6SM SKC
     FM270100 30005KT P6SM SKC=



000
FTUS45 KABQ 252300
TAFSAF
TAF
KSAF 252320Z 2600/2624 36010KT P6SM SKC
     FM260300 34008KT P6SM FEW250
     FM261300 34012KT P6SM FEW250
      TEMPO 2619/2623 35012G20KT=



000
FTUS45 KABQ 252300
TAFGUP
TAF
KGUP 252320Z 2600/2624 27010KT P6SM SKC
     FM260300 VRB04KT P6SM FEW120
     FM262000 31010KT P6SM SKC=



000
FTUS45 KABQ 252300
TAFLVS
TAF
KLVS 252320Z 2600/2624 09005KT P6SM SKC
     FM261800 18010KT P6SM FEW250
     FM262100 19010G22KT P6SM FEW250=



000
FTUS45 KABQ 252300
TAFABQ
TAF
KABQ 252320Z 2600/2624 36010KT P6SM FEW250
     FM260300 33006KT P6SM FEW250
     FM261900 34010G18KT P6SM FEW250=



000
FTUS45 KABQ 252300
TAFROW
TAF
KROW 252320Z 2600/2624 33015KT P6SM SKC
     FM260200 25006KT P6SM FEW250
     FM261500 03007KT P6SM SKC=



000
FTUS45 KABQ 252300
TAFFMN
TAF
KFMN 252320Z 2600/2624 30010G20KT P6SM SKC
     FM260200 29008KT P6SM FEW120
     FM260600 33007KT P6SM SKC
     FM262000 28010G20KT P6SM SKC=



000
FTUS45 KABQ 252300
TAFTCC
TAF
KTCC 252320Z 2600/2624 24020G30KT P6SM SKC
     FM260200 27010G20KT P6SM SKC
     FM260600 29009KT P6SM FEW250
     FM261500 03008KT P6SM FEW200=



000
FTUS45 KABQ 251700
TAFTCC
TAF
KTCC 251733Z 2518/2618 24023G34KT P6SM SCT200
     FM260000 26016G26KT P6SM BKN250
     FM260700 29009KT P6SM SCT250
     FM261300 02007KT P6SM FEW200=



000
FTUS45 KABQ 251700
TAFLVS
TAF
KLVS 251733Z 2518/2618 22012G22KT P6SM FEW100 BKN150
     FM251930 28018G28KT P6SM SCT100 SCT150
     FM260300 30011KT P6SM FEW250
     FM261700 21009KT P6SM FEW250=



000
FTUS45 KABQ 251700
TAFFMN
TAF
KFMN 251733Z 2518/2618 VRB06KT P6SM SCT100
     FM251900 28015G24KT P6SM FEW060 SCT100
     FM260200 29008KT P6SM FEW100
     FM260600 33007KT P6SM FEW100=



000
FTUS45 KABQ 251700
TAFABQ
TAF
KABQ 251733Z 2518/2618 28009KT P6SM FEW250
      TEMPO 2519/2523 28010G19KT
     FM260100 34006KT P6SM SCT250=



000
FTUS45 KABQ 251700
TAFROW
TAF
KROW 251733Z 2518/2618 20010KT P6SM FEW250
      TEMPO 2518/2522 20010G19KT
     FM260200 25006KT P6SM FEW250
     FM261500 01007KT P6SM SKC=



000
FTUS45 KABQ 251700
TAFGUP
TAF
KGUP 251733Z 2518/2618 25009KT P6SM FEW100
      TEMPO 2519/2523 25012G22KT
     FM260600 VRB04KT P6SM FEW250=



000
FTUS45 KABQ 251700
TAFSAF
TAF
KSAF 251733Z 2518/2618 30011KT P6SM FEW100 FEW250
      TEMPO 2518/2522 30013G22KT
     FM260300 34010KT P6SM FEW250
     FM261300 34012KT P6SM SCT250=



000
FTUS45 KABQ 251100
TAFABQ
TAF
KABQ 251136Z 2512/2612 34005KT P6SM BKN250
     FM251800 28009KT P6SM SCT250
      TEMPO 2519/2523 28009G19KT
     FM260100 35006KT P6SM SCT250=



000
FTUS45 KABQ 251100
TAFFMN
TAF
KFMN 251136Z 2512/2612 VRB06KT P6SM SCT100
     FM251900 28014G24KT P6SM SCT100
     FM260100 33005KT P6SM FEW100=



000
FTUS45 KABQ 251100
TAFTCC
TAF
KTCC 251136Z 2512/2612 28009KT P6SM BKN250
     FM251600 25015G25KT P6SM BKN250
     FM251800 25024G34KT P6SM BKN250
     FM260000 26016G26KT P6SM BKN250
     FM260700 29009KT P6SM BKN250=



000
FTUS45 KABQ 251100
TAFSAF
TAF
KSAF 251136Z 2512/2612 36009KT P6SM BKN250
     FM251700 30011KT P6SM SCT100
      TEMPO 2518/2522 30012G22KT
     FM260300 35010KT P6SM SCT250=



000
FTUS45 KABQ 251100
TAFLVS
TAF
KLVS 251136Z 2512/2612 22011KT P6SM BKN250
     FM251600 24012G22KT P6SM SCT100
     FM251900 28018G28KT P6SM SCT100
     FM260300 30011KT P6SM SCT250=



000
FTUS45 KABQ 251100
TAFROW
TAF
KROW 251136Z 2512/2612 VRB06KT P6SM SCT250
     FM251800 20009KT P6SM SCT250
      TEMPO 2519/2523 20009G19KT
     FM260200 25006KT P6SM SCT250=



000
FTUS45 KABQ 251100
TAFGUP
TAF
KGUP 251136Z 2512/2612 VRB06KT P6SM SCT250
     FM251800 25009KT P6SM FEW100
      TEMPO 2519/2523 25012G22KT
     FM260600 VRB04KT P6SM SCT250=



000
FTUS45 KABQ 250500
TAFLVS
TAF
KLVS 250522Z 2506/2606 06010KT P6SM SCT100
     FM251700 24010G20KT P6SM SKC
     FM251900 30015G25KT P6SM SKC
     FM260000 30010KT P6SM SKC=



000
FTUS45 KABQ 250500
TAFGUP
TAF
KGUP 250522Z 2506/2606 06010KT P6SM SKC
     FM251900 24010G20KT P6SM SKC
     FM252300 27005KT P6SM SKC=



000
FTUS45 KABQ 250500
TAFROW
TAF
KROW 250522Z 2506/2606 33005KT P6SM SKC
     FM251900 21010G20KT P6SM SKC
     FM260000 27010KT P6SM SKC=



000
FTUS45 KABQ 250500
TAFTCC
TAF
KTCC 250522Z 2506/2606 36010KT P6SM BKN090
     FM250800 36010KT P6SM SCT120
     FM251600 24015G25KT P6SM SKC
     FM251800 24020G30KT P6SM SKC
     FM260200 27010G20KT P6SM SKC=



000
FTUS45 KABQ 250500
TAFFMN
TAF
KFMN 250522Z 2506/2606 06005KT P6SM SKC
     FM251900 27010G20KT P6SM SCT050
     FM260000 30005KT P6SM SKC=



000
FTUS45 KABQ 250500
TAFABQ
TAF
KABQ 250522Z 2506/2606 33010KT P6SM SKC
     FM252000 30010G20KT P6SM SCT100
     FM260100 36005KT P6SM SCT100=



000
FTUS45 KABQ 250500
TAFSAF
TAF
KSAF 250522Z 2506/2606 36010KT P6SM SKC
     FM251700 30010G20KT P6SM FEW100
     FM260100 33005KT P6SM SKC=



000
FTUS45 KABQ 250400 AAB
TAFROW
TAF AMD
KROW 250409Z 2504/2524 31010KT P6SM SKC
     FM251100 33010KT P6SM SKC
     FM251700 21010G20KT P6SM SKC=



000
FTUS45 KABQ 250400 AAB
TAFFMN
TAF AMD
KFMN 250409Z 2504/2524 35005KT P6SM SKC
     FM250900 06010KT P6SM SKC
     FM251700 27010G20KT P6SM SCT100=



000
FTUS45 KABQ 250100 AAA
TAFROW
TAF AMD
KROW 250123Z 2501/2524 33010KT P6SM SKC
     FM250200 33010G20KT P6SM SKC
     FM251100 33010KT P6SM SKC
     FM251700 18010G20KT P6SM SKC=



000
FTUS45 KABQ 250100 AAA
TAFFMN
TAF AMD
KFMN 250123Z 2501/2524 33010G20KT P6SM SKC
     FM250900 09010KT P6SM SKC
     FM251700 27010G20KT P6SM SCT100=



000
FTUS45 KABQ 242300
TAFFMN
TAF
KFMN 242320Z 2500/2524 31021G31KT P6SM SCT100
     FM250100 31007KT P6SM SKC
     FM250900 08007KT P6SM SKC
     FM251700 27010G16KT P6SM SCT100=



000
FTUS45 KABQ 242300
TAFTCC
TAF
KTCC 242320Z 2500/2524 01011KT P6SM SCT090
      TEMPO 2501/2504 01014G22KT
     FM250700 30006KT P6SM SKC
     FM251600 25018G26KT P6SM SKC=



000
FTUS45 KABQ 242300
TAFGUP
TAF
KGUP 242320Z 2500/2524 32018G26KT P6SM SCT080
     FM250200 35007KT P6SM SKC
     FM250400 00000KT P6SM SKC
     FM252000 27009KT P6SM FEW100=



000
FTUS45 KABQ 242300
TAFLVS
TAF
KLVS 242320Z 2500/2524 34018G27KT P6SM SCT090
     FM250200 36010KT P6SM SCT090
     FM250800 26007KT P6SM SKC
     FM251600 27014G24KT P6SM SKC=



000
FTUS45 KABQ 242300
TAFROW
TAF
KROW 242320Z 2500/2524 30012G22KT P6SM FEW200
     FM250200 34012G24KT P6SM SKC
     FM251100 33009KT P6SM SKC
     FM251700 18009KT P6SM SKC=



000
FTUS45 KABQ 242300
TAFABQ
TAF
KABQ 242320Z 2500/2524 31020G28KT P6SM SCT090
     FM250200 35013G20KT P6SM FEW090
     FM250400 35007KT P6SM SKC
     FM251900 30010KT P6SM SKC=



000
FTUS45 KABQ 242300
TAFSAF
TAF
KSAF 242320Z 2500/2524 01009KT P6SM SCT070
     FM251800 28011G17KT P6SM SKC=



000
FTUS45 KABQ 241700
TAFGUP
TAF
KGUP 241725Z 2418/2518 VRB06KT P6SM SCT100
     FM241900 30015G25KT P6SM SCT100
     FM250200 35006KT P6SM SCT100
     FM251700 31011KT P6SM SCT100=



000
FTUS45 KABQ 241700
TAFSAF
TAF
KSAF 241725Z 2418/2518 31012G22KT P6SM BKN080
     FM250200 36010KT P6SM SCT090
     FM251600 28010KT P6SM SCT090=



000
FTUS45 KABQ 241700
TAFABQ
TAF
KABQ 241725Z 2418/2518 36009KT P6SM SCT100
     FM241900 31019G29KT P6SM BKN100
     FM250200 35015G25KT P6SM SCT100
     FM250400 34005KT P6SM SCT200
     FM251700 29011KT P6SM SCT200=



000
FTUS45 KABQ 241700
TAFTCC
TAF
KTCC 241725Z 2418/2518 28011KT P6SM SCT100
      TEMPO 2418/2421 28011G21KT
     FM242300 01011KT P6SM SCT070 BKN100
     FM250700 30006KT P6SM SCT100
     FM251700 24011KT P6SM SCT100=



000
FTUS45 KABQ 241700
TAFROW
TAF
KROW 241725Z 2418/2518 32012G24KT P6SM SCT200
     FM250400 34011KT P6SM BKN100
     FM251100 33009KT P6SM FEW200=



000
FTUS45 KABQ 241700
TAFLVS
TAF
KLVS 241725Z 2418/2518 36007G15KT P6SM FEW100
     FM241900 34012G22KT P6SM BKN090
     FM250200 36010KT P6SM BKN090=



000
FTUS45 KABQ 241700
TAFFMN
TAF
KFMN 241725Z 2418/2518 28011KT P6SM SCT100
     FM241900 31020G30KT P6SM BKN100
      TEMPO 2419/2423 30030G40KT 6SM BLDU
     FM242300 31021G31KT P6SM SCT100
     FM250100 31006KT P6SM SCT200
     FM250900 08008KT P6SM FEW100
     FM251600 27010KT P6SM FEW100=



000
FTUS45 KABQ 241100
TAFABQ
TAF
KABQ 241121Z 2412/2512 36009KT P6SM SCT100
     FM241900 31019G29KT P6SM BKN100
     FM250200 35015G25KT P6SM SCT100
     FM250500 35011KT P6SM SCT200
     FM250900 34005KT P6SM SCT200=



000
FTUS45 KABQ 241100
TAFROW
TAF
KROW 241121Z 2412/2512 33008KT P6SM SCT200
     FM242000 31013G23KT P6SM SCT100
     FM250400 34015G25KT P6SM BKN100
     FM251100 33009KT P6SM FEW200=



000
FTUS45 KABQ 241100
TAFLVS
TAF
KLVS 241121Z 2412/2512 34011KT P6SM SCT100
     FM241830 34012G22KT P6SM BKN090
     FM250200 36010KT P6SM BKN090=



000
FTUS45 KABQ 241100
TAFSAF
TAF
KSAF 241121Z 2412/2512 35011KT P6SM SCT100
     FM241700 31012G22KT P6SM BKN080
     FM250200 36010KT P6SM SCT090=



000
FTUS45 KABQ 241100
TAFTCC
TAF
KTCC 241121Z 2412/2512 28011KT P6SM SCT100
      TEMPO 2417/2421 28011G21KT
     FM242300 02012G22KT P6SM SCT070 BKN100
     FM250700 30006KT P6SM SCT100=



000
FTUS45 KABQ 241100
TAFGUP
TAF
KGUP 241121Z 2412/2512 VRB04KT P6SM SCT100
     FM241900 29015G25KT P6SM SCT100
     FM242200 33013G23KT P6SM SCT100
     FM250200 35006KT P6SM SCT100=



000
FTUS45 KABQ 241100
TAFFMN
TAF
KFMN 241121Z 2412/2512 27011KT P6SM BKN100
     FM241700 28019G29KT P6SM BKN100
      TEMPO 2419/2423 30030G40KT 6SM BLDU
     FM242300 31021G31KT P6SM SCT100
     FM250200 31011KT P6SM SCT200
     FM250900 08008KT P6SM FEW100=



000
FTUS45 KABQ 240600 CCA
TAFTCC
TAF COR
KTCC 240619Z 2406/2506 30009KT P6SM SCT070 BKN100
     FM240900 29006KT P6SM SKC
     FM241800 27015G24KT P6SM FEW120 SCT200
     FM250000 01012G19KT P6SM SCT070 BKN100=



000
FTUS45 KABQ 240600 CCA
TAFROW
TAF COR
KROW 240619Z 2406/2506 30008KT P6SM FEW100
     FM242000 31015G24KT P6SM FEW120=



000
FTUS45 KABQ 240500 RRA
TAFABQ
TAF
KABQ 240540Z 2406/2506 34009KT P6SM SKC
     FM241900 31020G30KT P6SM SCT200
     FM250200 34013G20KT P6SM FEW200=



000
FTUS45 KABQ 240500 RRA
TAFLVS
TAF
KLVS 240540Z 2406/2506 32011KT P6SM FEW050 SCT080
     FM241700 26015G24KT P6SM SCT090 SCT150
     FM242200 31020G28KT P6SM SCT080 BKN140
     FM250030 35014KT P6SM SCT070 BKN120=



000
FTUS45 KABQ 240500 RRA
TAFTCC
TAF
KTCC 240540Z 2406/2506 30012KT P6SM SCT060 SCT100
     FM241000 28006KT P6SM SKC=



000
FTUS45 KABQ 240500 RRA
TAFROW
TAF
KROW 240540Z 2406/2506 27009KT P6SM FEW070
     FM241700 31014G22KT P6SM SKC=



000
FTUS45 KABQ 240500 RRA
TAFSAF
TAF
KSAF 240540Z 2406/2506 34007KT P6SM SKC
     FM241730 31018G27KT P6SM SCT090 SCT150
     FM250200 35011KT P6SM SCT100=



000
FTUS45 KABQ 240500 RRA
TAFFMN
TAF
KFMN 240540Z 2406/2506 30008KT P6SM SKC
     FM241800 28023G32KT P6SM FEW120 SCT200
      TEMPO 2419/2423 30029G40KT 5SM BLDU
     FM250200 31011KT P6SM SKC=



000
FTUS45 KABQ 240500 RRA
TAFGUP
TAF
KGUP 240540Z 2406/2506 VRB04KT P6SM SKC
     FM241900 27015G24KT P6SM FEW140 SCT200
     FM242100 30020G29KT P6SM FEW120 SCT200
     FM250200 35006KT P6SM SKC=



000
FTUS45 KABQ 240300 AAA
TAFLVS
TAF AMD
KLVS 240320Z 2403/2424 29006KT 5SM BR OVC025
      TEMPO 2403/2405 VRB14KT 1SM -SHSN BR OVC008
     FM240500 15007KT P6SM OVC020
     FM240700 27009KT P6SM SCT050
     FM242000 28012G20KT P6SM SKC=



000
FTUS45 KABQ 240300 AAA
TAFLVS
TAF AMD
KLVS 240320Z 2403/2424 29006KT 5SM BR OVC025
      TEMPO 2403/2405 VRB14KT 1SM -SHSN BR OVC008
     FM240500 15007KT P6SM OVC020
     FM240700 27009KT P6SM SCT050
     FM242000 28012G20KT P6SM SKC=



000
FTUS45 KABQ 232300
TAFROW
TAF
KROW 232340Z 2400/2424 34022G34KT P6SM BKN080
     FM240200 32014KT P6SM SCT080
     FM240400 30009KT P6SM FEW070
     FM241700 31014G22KT P6SM SKC=



000
FTUS45 KABQ 232300
TAFABQ
TAF
KABQ 232340Z 2400/2424 32020G29KT P6SM FEW080
     FM240100 34014G22KT P6SM SKC
     FM240400 34007KT P6SM SKC
     FM241900 32012G20KT P6SM SKC=



000
FTUS45 KABQ 232300
TAFSAF
TAF
KSAF 232340Z 2400/2424 01015KT P6SM BKN070
     FM240100 35012KT P6SM FEW070
     FM240600 34007KT P6SM SKC
     FM241700 32012G18KT P6SM SKC=



000
FTUS45 KABQ 232300
TAFGUP
TAF
KGUP 232340Z 2400/2424 31017G26KT P6SM FEW060
     FM240100 32007KT P6SM SKC
     FM240600 VRB03KT P6SM SKC
     FM241900 27014G22KT P6SM SKC=



000
FTUS45 KABQ 232300
TAFFMN
TAF
KFMN 232340Z 2400/2424 31018G26KT P6SM FEW070
     FM240100 30014G21KT P6SM SKC
     FM240400 29007KT P6SM SKC
     FM241800 28023G32KT P6SM SKC=



000
FTUS45 KABQ 232300
TAFTCC
TAF
KTCC 232340Z 2400/2424 36009KT P6SM VCSH BKN060
     FM240300 27011KT P6SM SCT060 SCT100
     FM241000 28006KT P6SM SKC
      AMD NOT SKED=



000
FTUS45 KABQ 232300
TAFLVS
TAF
KLVS 232340Z 2400/2424 02012G20KT P6SM -SN BKN030
      TEMPO 2400/2402 3SM -SN BKN020
     FM240200 15007KT P6SM OVC020
     FM240500 27009KT P6SM SCT050
     FM242000 28012G20KT P6SM SKC=



000
FTUS45 KABQ 231700
TAFROW
TAF
KROW 231731Z 2318/2418 30027G37KT P6SM FEW120
     FM232300 32015KT P6SM SKC
     FM240600 29007KT P6SM FEW070
     FM241700 31012G20KT P6SM SKC=



000
FTUS45 KABQ 231700
TAFGUP
TAF
KGUP 231731Z 2318/2418 30018G28KT P6SM SCT060
     FM240100 32006KT P6SM FEW120
     FM240600 VRB03KT P6SM SKC=



000
FTUS45 KABQ 231700
TAFSAF
TAF
KSAF 231731Z 2318/2418 29018G28KT P6SM BKN070
     FM240100 32012KT P6SM FEW070
     FM240600 34007KT P6SM SKC
     FM241700 32010G16KT P6SM SKC=



000
FTUS45 KABQ 231700
TAFABQ
TAF
KABQ 231731Z 2318/2418 32024G30KT P6SM SCT080
     FM240100 34015KT P6SM SKC
     FM240500 34007KT P6SM SKC=



000
FTUS45 KABQ 231700
TAFTCC
TAF
KTCC 231731Z 2318/2418 04016G24KT P6SM VCSH BKN060
      TEMPO 2319/2321 -SHRASN OVC025
     FM240000 34010KT P6SM SCT100
     FM240800 28006KT P6SM SKC
      AMD NOT SKED=



000
FTUS45 KABQ 231700
TAFLVS
TAF
KLVS 231731Z 2318/2418 32024G36KT P6SM SCT080
     FM232000 02012G20KT P6SM VCSH BKN060
      TEMPO 2321/2401 2SM -SN OVC010
     FM240100 15007KT P6SM OVC020
     FM240500 30009KT P6SM SKC=



000
FTUS45 KABQ 231700
TAFFMN
TAF
KFMN 231731Z 2318/2418 29024G32KT P6SM SCT040
     FM240000 30014G21KT P6SM SKC
     FM240400 29009KT P6SM SKC=



000
FTUS45 KABQ 231500 AAA
TAFTCC
TAF AMD
KTCC 231555Z 2316/2412 29018G28KT P6SM SCT100
     FM231800 36023G33KT P6SM BKN060
     FM240000 34010KT P6SM SCT100
     FM240600 30006KT P6SM SKC
      AMD NOT SKED=



000
FTUS45 KABQ 231500 AAA
TAFTCC
TAF AMD
KTCC 231555Z 2316/2412 29018G28KT P6SM SCT100
     FM231800 36023G33KT P6SM BKN060
     FM240000 34010KT P6SM SCT100
     FM240600 30006KT P6SM SKC
      AMD NOT SKED=



000
FTUS45 KABQ 231100
TAFGUP
TAF
KGUP 231128Z 2312/2412 24010G17KT P6SM VCSH BKN090
     FM231700 30018G28KT P6SM SCT090
     FM240100 32006KT P6SM FEW120
     FM240600 VRB03KT P6SM SKC=



000
FTUS45 KABQ 231100
TAFABQ
TAF
KABQ 231128Z 2312/2412 29012G20KT P6SM SCT120
     FM231700 32021G30KT P6SM SCT100
     FM232000 32028G37KT P6SM SCT120
     FM240100 34015KT P6SM FEW120
     FM240500 34009KT P6SM SKC=



000
FTUS45 KABQ 231100
TAFFMN
TAF
KFMN 231128Z 2312/2412 30012G21KT P6SM VCSH FEW040 OVC060
     FM231800 29028G38KT P6SM FEW060 SCT080
     FM240100 30011G18KT P6SM FEW100
     FM240400 29010KT P6SM SKC=



000
FTUS45 KABQ 231100
TAFSAF
TAF
KSAF 231128Z 2312/2412 27008G16KT P6SM SCT110
     FM231700 29018G28KT P6SM BKN120
     FM232000 32025G35KT P6SM SCT120
     FM240100 32012KT P6SM FEW120
     FM240600 34007KT P6SM SKC=



000
FTUS45 KABQ 231100
TAFROW
TAF
KROW 231128Z 2312/2412 32006KT P6SM FEW250
     FM231400 29014G23KT P6SM SCT250
     FM231700 32027G37KT P6SM FEW120
     FM240000 32015KT P6SM SKC
     FM240600 32009KT P6SM SKC=



000
FTUS45 KABQ 231100
TAFTCC
TAF
KTCC 231128Z 2312/2412 26012G22KT P6SM SKC
     FM231500 29018G28KT P6SM SCT100
     FM231800 36023G33KT P6SM BKN060
     FM240000 34010KT P6SM SCT100
     FM240600 30006KT P6SM SKC=



000
FTUS45 KABQ 231100
TAFLVS
TAF
KLVS 231128Z 2312/2412 30018G28KT P6SM SCT120
     FM231500 31022G32KT P6SM SCT080 BKN120
     FM231800 32015G25KT P6SM VCSH BKN080
     FM240000 33012KT P6SM SCT100
     FM240800 30007KT P6SM SKC=



    US Dept of Commerce
    National Oceanic and Atmospheric Administration
    National Weather Service
    1325 East West Highway
    Silver Spring, MD 20910
    Page Author: NWS Internet Services Team
Disclaimer
Information Quality
Credits
Glossary
Privacy Policy
Freedom of Information Act (FOIA)
About Us
Career Opportunities